createdAt,value
2022-12-29T00:02:08.039Z,101374.91
2022-12-29T00:04:53.251Z,101421.06
2022-12-29T00:07:37.139Z,101414.06
2022-12-29T00:10:20.971Z,101421.06
2022-12-29T00:13:22.152Z,101402.78
2022-12-29T00:16:09.482Z,101419.31
2022-12-29T00:18:53.299Z,101427.13
2022-12-29T00:21:55.997Z,101417.53
2022-12-29T00:24:57.402Z,101418.41
2022-12-29T00:28:04.764Z,101414.94
2022-12-29T00:31:08.316Z,101412.34
2022-12-29T00:34:09.991Z,101407.13
2022-12-29T00:36:55.167Z,101413.22
2022-12-29T00:39:56.596Z,101414.97
2022-12-29T00:42:58.031Z,101392.34
2022-12-29T00:45:43.274Z,101413.25
2022-12-29T00:48:44.707Z,101412.38
2022-12-29T00:51:28.522Z,101420.16
2022-12-29T00:54:13.844Z,101418.47
2022-12-29T00:56:58.378Z,101403.66
2022-12-29T00:59:43.621Z,101368.84
2022-12-29T01:02:27.565Z,101394.97
2022-12-29T01:05:11.462Z,101401.94
2022-12-29T01:07:55.414Z,101394.09
2022-12-29T01:10:39.582Z,101379.34
2022-12-29T01:13:24.478Z,101394.97
2022-12-29T01:16:09.019Z,101349.72
2022-12-29T01:18:52.989Z,101212.38
2022-12-29T01:21:38.938Z,101375.00
2022-12-29T01:24:23.200Z,101373.22
2022-12-29T01:27:08.357Z,101366.28
2022-12-29T01:29:52.099Z,101340.19
2022-12-29T01:32:35.799Z,101357.56
2022-12-29T01:35:19.659Z,101361.06
2022-12-29T01:38:03.455Z,101349.75
2022-12-29T01:40:48.676Z,101340.19
2022-12-29T01:43:43.851Z,101324.53
2022-12-29T01:46:30.563Z,101327.16
2022-12-29T01:49:18.221Z,101324.50
2022-12-29T01:52:07.454Z,101262.84
2022-12-29T01:54:54.783Z,101300.22
2022-12-29T01:57:43.705Z,101312.38
2022-12-29T02:00:29.093Z,101293.25
2022-12-29T02:03:14.149Z,101312.38
2022-12-29T02:06:04.553Z,101306.28
2022-12-29T02:08:49.392Z,101293.25
2022-12-29T02:11:34.110Z,101320.19
2022-12-29T02:14:20.999Z,101310.63
2022-12-29T02:17:13.824Z,101313.25
2022-12-29T02:20:25.344Z,101308.91
2022-12-29T02:23:31.826Z,101307.16
2022-12-29T02:26:32.029Z,101301.09
2022-12-29T02:29:40.072Z,101287.19
2022-12-29T02:32:33.650Z,101299.34
2022-12-29T02:35:32.973Z,101290.66
2022-12-29T02:38:22.198Z,101290.63
2022-12-29T02:41:15.354Z,101284.56
2022-12-29T02:44:06.151Z,101286.28
2022-12-29T02:46:56.095Z,101281.97
2022-12-29T02:49:50.527Z,101289.78
2022-12-29T02:52:39.033Z,101269.81
2022-12-29T02:55:21.921Z,101279.34
2022-12-29T02:58:18.405Z,101275.00
2022-12-29T03:01:19.154Z,101235.88
2022-12-29T03:04:20.529Z,101267.19
2022-12-29T03:07:15.250Z,101275.00
2022-12-29T03:10:06.750Z,101248.06
2022-12-29T03:13:16.387Z,101272.41
2022-12-29T03:16:13.372Z,101270.63
2022-12-29T03:19:02.728Z,101276.75
2022-12-29T03:22:08.220Z,101268.94
2022-12-29T03:25:03.543Z,101295.00
2022-12-29T03:27:52.737Z,101296.72
2022-12-29T03:30:39.722Z,101290.63
2022-12-29T03:33:26.555Z,101295.84
2022-12-29T03:36:26.973Z,101297.59
2022-12-29T03:39:13.296Z,101302.75
2022-12-29T03:42:03.446Z,101256.69
2022-12-29T03:44:48.539Z,101279.31
2022-12-29T03:47:33.772Z,101301.06
2022-12-29T03:50:18.396Z,101308.00
2022-12-29T03:53:02.334Z,101288.06
2022-12-29T03:55:46.176Z,101301.09
2022-12-29T03:58:32.036Z,101277.59
2022-12-29T04:01:22.150Z,101293.22
2022-12-29T04:04:06.360Z,101301.03
2022-12-29T04:06:51.205Z,101314.97
2022-12-29T04:09:35.085Z,101309.75
2022-12-29T04:12:19.951Z,101309.75
2022-12-29T04:15:06.682Z,101317.59
2022-12-29T04:17:51.343Z,101257.63
2022-12-29T04:20:52.693Z,101273.25
2022-12-29T04:23:41.387Z,101321.91
2022-12-29T04:26:27.061Z,101314.94
2022-12-29T04:29:25.359Z,101308.91
2022-12-29T04:32:29.363Z,101307.13
2022-12-29T04:35:13.636Z,101316.72
2022-12-29T04:37:57.453Z,101311.50
2022-12-29T04:40:41.775Z,101299.28
2022-12-29T04:43:27.051Z,101318.41
2022-12-29T04:46:33.817Z,101325.38
2022-12-29T04:49:23.852Z,101326.25
2022-12-29T04:52:25.077Z,101288.00
2022-12-29T04:55:10.525Z,101319.34
2022-12-29T04:57:54.426Z,101282.81
2022-12-29T05:00:38.362Z,101312.38
2022-12-29T05:03:22.308Z,101317.59
2022-12-29T05:06:09.156Z,101308.03
2022-12-29T05:08:53.041Z,101321.94
2022-12-29T05:11:37.548Z,101324.53
2022-12-29T05:14:21.347Z,101323.66
2022-12-29T05:17:05.168Z,101315.84
2022-12-29T05:19:49.022Z,101288.03
2022-12-29T05:22:34.305Z,101281.94
2022-12-29T05:25:19.757Z,101301.06
2022-12-29T05:28:13.547Z,101315.81
2022-12-29T05:31:02.871Z,101321.94
2022-12-29T05:33:47.598Z,101294.13
2022-12-29T05:36:37.468Z,101320.22
2022-12-29T05:39:24.558Z,101316.72
2022-12-29T05:42:12.932Z,101315.00
2022-12-29T05:45:31.991Z,101319.34
2022-12-29T05:48:33.006Z,101316.75
2022-12-29T05:51:41.651Z,101324.56
2022-12-29T05:54:26.918Z,101298.47
2022-12-29T05:57:11.306Z,101320.22
2022-12-29T05:59:56.293Z,101317.59
2022-12-29T06:02:40.290Z,101319.31
2022-12-29T06:05:24.887Z,101324.53
2022-12-29T06:08:08.760Z,101323.63
2022-12-29T06:10:54.078Z,101317.56
2022-12-29T06:13:38.056Z,101325.38
2022-12-29T06:16:22.048Z,101290.56
2022-12-29T06:19:08.272Z,101326.19
2022-12-29T06:21:53.672Z,101319.19
2022-12-29T06:24:37.905Z,101287.94
2022-12-29T06:27:23.453Z,101278.34
2022-12-29T06:30:11.258Z,101323.50
2022-12-29T06:32:56.949Z,101329.50
2022-12-29T06:35:42.298Z,101319.91
2022-12-29T06:38:26.169Z,101321.56
2022-12-29T06:41:10.713Z,101318.91
2022-12-29T06:44:14.698Z,101312.75
2022-12-29T06:47:07.116Z,101321.38
2022-12-29T06:49:51.201Z,101314.22
2022-12-29T06:52:35.188Z,101261.13
2022-12-29T06:55:19.205Z,101303.56
2022-12-29T06:58:03.460Z,101307.78
2022-12-29T07:00:49.398Z,101306.78
2022-12-29T07:03:33.580Z,101275.38
2022-12-29T07:06:17.605Z,101309.03
2022-12-29T07:09:01.649Z,101301.81
2022-12-29T07:11:45.651Z,101305.13
2022-12-29T07:14:29.432Z,101313.66
2022-12-29T07:17:14.559Z,101291.94
2022-12-29T07:19:58.555Z,101316.84
2022-12-29T07:22:42.349Z,101319.31
2022-12-29T07:25:26.289Z,101287.91
2022-12-29T07:28:10.214Z,101283.44
2022-12-29T07:30:54.040Z,101324.09
2022-12-29T07:33:39.257Z,101304.88
2022-12-29T07:36:23.291Z,101315.91
2022-12-29T07:39:07.030Z,101328.03
2022-12-29T07:41:51.267Z,101326.97
2022-12-29T07:44:37.674Z,101316.28
2022-12-29T07:47:36.053Z,101325.81
2022-12-29T07:50:21.458Z,101284.16
2022-12-29T07:53:06.030Z,101330.81
2022-12-29T07:55:50.128Z,101312.78
2022-12-29T07:58:34.196Z,101285.66
2022-12-29T08:01:18.432Z,101320.97
2022-12-29T08:04:02.703Z,101283.78
2022-12-29T08:06:48.275Z,101280.97
2022-12-29T08:09:32.313Z,101324.09
2022-12-29T08:12:16.195Z,101319.59
2022-12-29T08:15:00.016Z,101321.97
2022-12-29T08:17:43.970Z,101321.06
2022-12-29T08:20:27.867Z,101322.69
2022-12-29T08:23:13.088Z,101301.41
2022-12-29T08:26:00.061Z,101328.03
2022-12-29T08:28:43.745Z,101303.44
2022-12-29T08:31:27.638Z,101329.34
2022-12-29T08:34:11.511Z,101317.88
2022-12-29T08:36:55.292Z,101306.72
2022-12-29T08:39:40.523Z,101302.94
2022-12-29T08:42:24.415Z,101308.97
2022-12-29T08:45:09.984Z,101313.72
2022-12-29T08:47:53.865Z,101263.94
2022-12-29T08:50:37.755Z,101303.16
2022-12-29T08:53:21.868Z,101291.81
2022-12-29T08:56:08.257Z,101306.44
2022-12-29T08:59:01.034Z,101299.66
2022-12-29T09:01:47.619Z,101292.13
2022-12-29T09:04:31.566Z,101292.44
2022-12-29T09:07:15.495Z,101289.88
2022-12-29T09:09:59.299Z,101270.91
2022-12-29T09:12:44.433Z,101296.78
2022-12-29T09:15:28.426Z,101176.44
2022-12-29T09:18:19.057Z,101258.31
2022-12-29T09:21:07.977Z,101284.69
2022-12-29T09:23:51.719Z,101286.47
2022-12-29T09:26:35.495Z,101278.19
2022-12-29T09:29:20.700Z,101284.06
2022-12-29T09:32:07.663Z,101282.50
2022-12-29T09:34:51.697Z,101288.47
2022-12-29T09:37:35.610Z,101279.13
2022-12-29T09:40:27.774Z,101278.28
2022-12-29T09:43:36.659Z,101267.56
2022-12-29T09:46:27.730Z,101260.78
2022-12-29T09:49:23.447Z,101221.25
2022-12-29T09:52:13.558Z,101253.78
2022-12-29T09:55:02.901Z,101254.09
2022-12-29T09:57:55.080Z,101225.88
2022-12-29T10:00:43.226Z,101242.53
2022-12-29T10:03:38.908Z,101235.69
2022-12-29T10:06:28.890Z,101247.19
2022-12-29T10:09:21.934Z,101240.59
2022-12-29T10:12:20.339Z,101216.78
2022-12-29T10:15:14.485Z,101233.78
2022-12-29T10:18:10.985Z,101230.00
2022-12-29T10:21:01.361Z,101227.88
2022-12-29T10:23:47.758Z,101220.19
2022-12-29T10:26:38.257Z,101199.41
2022-12-29T10:29:24.377Z,101193.78
2022-12-29T10:32:17.036Z,101204.44
2022-12-29T10:35:05.683Z,101207.09
2022-12-29T10:38:00.300Z,101212.63
2022-12-29T10:40:51.299Z,101200.81
2022-12-29T10:43:43.361Z,101199.84
2022-12-29T10:46:31.643Z,101200.00
2022-12-29T10:49:22.277Z,101198.84
2022-12-29T10:52:07.226Z,101198.50
2022-12-29T10:54:58.161Z,101192.06
2022-12-29T10:57:45.963Z,101158.78
2022-12-29T11:00:29.679Z,101187.94
2022-12-29T11:03:37.051Z,101188.00
2022-12-29T11:06:26.314Z,101185.25
2022-12-29T11:09:15.042Z,101191.22
2022-12-29T11:12:00.705Z,101149.53
2022-12-29T11:14:44.629Z,101174.50
2022-12-29T11:17:28.517Z,101153.69
2022-12-29T11:20:33.263Z,101181.22
2022-12-29T11:23:26.649Z,101181.09
2022-12-29T11:26:25.337Z,101176.56
2022-12-29T11:29:25.334Z,101179.84
2022-12-29T11:32:14.927Z,101172.19
2022-12-29T11:34:59.763Z,101138.47
2022-12-29T11:37:43.732Z,101165.06
2022-12-29T11:40:28.311Z,101123.50
2022-12-29T11:43:30.881Z,101148.81
2022-12-29T11:46:19.144Z,101163.81
2022-12-29T11:49:05.339Z,101148.78
2022-12-29T11:51:51.189Z,101162.94
2022-12-29T11:54:39.093Z,101154.41
2022-12-29T11:57:26.007Z,101141.69
2022-12-29T12:00:18.513Z,101148.72
2022-12-29T12:03:06.912Z,101120.53
2022-12-29T12:05:55.386Z,101139.88
2022-12-29T12:08:45.257Z,101133.47
2022-12-29T12:11:37.335Z,101126.09
2022-12-29T12:14:25.976Z,101119.81
2022-12-29T12:17:39.413Z,101123.16
2022-12-29T12:20:31.002Z,100968.88
2022-12-29T12:23:31.268Z,101133.06
2022-12-29T12:26:18.508Z,101121.16
2022-12-29T12:29:10.856Z,101110.84
2022-12-29T12:31:59.507Z,101120.91
2022-12-29T12:34:45.364Z,101113.66
2022-12-29T12:38:01.513Z,101115.22
2022-12-29T12:41:09.983Z,101112.75
2022-12-29T12:44:02.646Z,101120.19
2022-12-29T12:47:03.708Z,101118.41
2022-12-29T12:50:24.144Z,101107.13
2022-12-29T12:53:35.891Z,101119.16
2022-12-29T12:56:49.792Z,101119.56
2022-12-29T12:59:43.353Z,101082.13
2022-12-29T13:02:42.276Z,101094.06
2022-12-29T13:05:47.482Z,101076.16
2022-12-29T13:08:50.045Z,101113.50
2022-12-29T13:11:50.343Z,101111.34
2022-12-29T13:14:45.006Z,101112.81
2022-12-29T13:17:37.432Z,101110.31
2022-12-29T13:20:30.586Z,101066.59
2022-12-29T13:23:24.049Z,101099.34
2022-12-29T13:26:18.946Z,101120.19
2022-12-29T13:29:12.573Z,101110.09
2022-12-29T13:32:05.163Z,101104.88
2022-12-29T13:34:55.765Z,101121.06
2022-12-29T13:37:48.146Z,101121.19
2022-12-29T13:40:36.741Z,101106.53
2022-12-29T13:43:24.482Z,101121.78
2022-12-29T13:46:12.359Z,101118.22
2022-12-29T13:49:00.913Z,101118.59
2022-12-29T13:51:49.934Z,101111.69
2022-12-29T13:54:44.134Z,101113.66
2022-12-29T13:57:39.737Z,101103.78
2022-12-29T14:00:27.896Z,101108.47
2022-12-29T14:03:50.580Z,101095.28
2022-12-29T14:06:41.441Z,101102.41
2022-12-29T14:09:48.761Z,101119.44
2022-12-29T14:12:40.590Z,101117.69
2022-12-29T14:15:28.432Z,101110.19
2022-12-29T14:18:16.562Z,101119.59
2022-12-29T14:21:04.732Z,101120.38
2022-12-29T14:23:51.002Z,101118.94
2022-12-29T14:26:38.092Z,101127.91
2022-12-29T14:29:47.637Z,101119.50
2022-12-29T14:32:41.906Z,101109.91
2022-12-29T14:35:42.013Z,101099.81
2022-12-29T14:38:28.549Z,101115.91
2022-12-29T14:41:26.655Z,101118.16
2022-12-29T14:44:20.654Z,101113.13
2022-12-29T14:47:10.073Z,101113.56
2022-12-29T14:49:57.055Z,101114.75
2022-12-29T14:52:49.162Z,101096.78
2022-12-29T14:55:40.821Z,101089.69
2022-12-29T14:58:30.001Z,101127.91
2022-12-29T15:01:22.448Z,101090.28
2022-12-29T15:04:17.238Z,101134.25
2022-12-29T15:07:04.618Z,101132.16
2022-12-29T15:09:53.118Z,101128.91
2022-12-29T15:12:41.562Z,101135.53
2022-12-29T15:15:27.873Z,101139.94
2022-12-29T15:18:17.239Z,101137.63
2022-12-29T15:21:03.288Z,101133.25
2022-12-29T15:23:49.089Z,101124.53
2022-12-29T15:26:41.027Z,101126.31
2022-12-29T15:29:34.331Z,101115.81
2022-12-29T15:32:22.005Z,101136.28
2022-12-29T15:35:25.828Z,101135.19
2022-12-29T15:38:17.068Z,101132.06
2022-12-29T15:41:06.909Z,101122.81
2022-12-29T15:44:01.656Z,101124.69
2022-12-29T15:46:45.671Z,101131.50
2022-12-29T15:49:32.478Z,101128.28
2022-12-29T15:52:21.338Z,101125.09
2022-12-29T15:55:05.742Z,101130.00
2022-12-29T15:57:50.909Z,101133.47
2022-12-29T16:00:38.325Z,101129.84
2022-12-29T16:03:24.728Z,101139.31
2022-12-29T16:06:27.746Z,101137.69
2022-12-29T16:09:18.245Z,101135.41
2022-12-29T16:12:05.838Z,101128.34
2022-12-29T16:14:55.718Z,101088.66
2022-12-29T16:17:48.635Z,101119.25
2022-12-29T16:20:42.264Z,101132.03
2022-12-29T16:23:29.049Z,101128.53
2022-12-29T16:26:18.214Z,101124.41
2022-12-29T16:29:04.044Z,101081.38
2022-12-29T16:32:01.504Z,101099.56
2022-12-29T16:34:46.417Z,101126.44
2022-12-29T16:37:32.758Z,101130.81
2022-12-29T16:40:32.722Z,101134.41
2022-12-29T16:43:23.916Z,101124.59
2022-12-29T16:46:27.397Z,101131.13
2022-12-29T16:49:21.617Z,101116.47
2022-12-29T16:52:14.938Z,101138.91
2022-12-29T16:55:02.100Z,101127.78
2022-12-29T16:57:50.179Z,101167.16
2022-12-29T17:00:38.373Z,101150.66
2022-12-29T17:03:22.289Z,101154.78
2022-12-29T17:06:07.987Z,101145.31
2022-12-29T17:08:53.315Z,101159.06
2022-12-29T17:12:00.368Z,101132.81
2022-12-29T17:14:48.463Z,101162.56
2022-12-29T17:17:35.160Z,101142.66
2022-12-29T17:20:22.294Z,101156.56
2022-12-29T17:23:24.352Z,101110.75
2022-12-29T17:26:10.623Z,101148.16
2022-12-29T17:28:54.486Z,101110.13
2022-12-29T17:31:38.409Z,101161.22
2022-12-29T17:34:23.088Z,101161.59
2022-12-29T17:37:23.002Z,101160.34
2022-12-29T17:40:12.132Z,101149.19
2022-12-29T17:42:58.928Z,101151.09
2022-12-29T17:45:43.872Z,101152.53
2022-12-29T17:48:27.849Z,101150.97
2022-12-29T17:51:13.458Z,101151.81
2022-12-29T17:53:57.331Z,101145.72
2022-12-29T17:56:42.751Z,101140.59
2022-12-29T17:59:26.563Z,101144.09
2022-12-29T18:02:26.270Z,101140.63
2022-12-29T18:05:19.013Z,101145.41
2022-12-29T18:08:02.790Z,101138.25
2022-12-29T18:10:47.601Z,101134.91
2022-12-29T18:13:43.937Z,101140.00
2022-12-29T18:16:29.613Z,101101.81
2022-12-29T18:19:13.374Z,101143.66
2022-12-29T18:21:57.223Z,101132.56
2022-12-29T18:24:41.068Z,101144.47
2022-12-29T18:27:24.889Z,101145.41
2022-12-29T18:30:11.049Z,101125.41
2022-12-29T18:32:54.869Z,101117.41
2022-12-29T18:35:41.699Z,101134.06
2022-12-29T18:38:25.920Z,101134.78
2022-12-29T18:41:17.309Z,101124.41
2022-12-29T18:44:01.392Z,101140.16
2022-12-29T18:46:46.626Z,101143.63
2022-12-29T18:49:31.287Z,101134.19
2022-12-29T18:52:15.122Z,101110.22
2022-12-29T18:54:58.916Z,101108.44
2022-12-29T18:57:42.995Z,101124.88
2022-12-29T19:00:26.835Z,101131.66
2022-12-29T19:03:13.838Z,101124.84
2022-12-29T19:05:59.196Z,101122.97
2022-12-29T19:08:43.526Z,101121.09
2022-12-29T19:11:27.337Z,101128.97
2022-12-29T19:14:17.645Z,101115.94
2022-12-29T19:17:01.361Z,101130.03
2022-12-29T19:19:46.699Z,101123.81
2022-12-29T19:22:30.590Z,101131.72
2022-12-29T19:25:14.426Z,101135.06
2022-12-29T19:27:58.856Z,101124.78
2022-12-29T19:30:42.566Z,101124.72
2022-12-29T19:33:26.844Z,101122.03
2022-12-29T19:36:15.622Z,101120.22
2022-12-29T19:38:59.721Z,101115.09
2022-12-29T19:41:43.738Z,101109.19
2022-12-29T19:44:27.555Z,101114.38
2022-12-29T19:47:11.467Z,101110.75
2022-12-29T19:49:55.467Z,101032.91
2022-12-29T19:52:40.599Z,101110.06
2022-12-29T19:55:24.654Z,101065.16
2022-12-29T19:58:08.514Z,101085.88
2022-12-29T20:00:52.347Z,101109.34
2022-12-29T20:03:36.583Z,101090.84
2022-12-29T20:06:20.971Z,101083.91
2022-12-29T20:09:06.393Z,101099.75
2022-12-29T20:11:50.185Z,101098.06
2022-12-29T20:14:34.186Z,101094.44
2022-12-29T20:17:32.577Z,101097.88
2022-12-29T20:20:21.785Z,101101.19
2022-12-29T20:23:05.666Z,101092.75
2022-12-29T20:25:57.272Z,101079.72
2022-12-29T20:28:41.287Z,101081.41
2022-12-29T20:31:26.884Z,101098.09
2022-12-29T20:34:10.895Z,101091.34
2022-12-29T20:36:54.805Z,101107.00
2022-12-29T20:39:38.880Z,101098.97
2022-12-29T20:42:24.103Z,101087.75
2022-12-29T20:45:08.291Z,101096.50
2022-12-29T20:47:52.187Z,101098.34
2022-12-29T20:50:36.072Z,101089.78
2022-12-29T20:53:19.861Z,101094.09
2022-12-29T20:56:06.005Z,101056.22
2022-12-29T20:59:25.757Z,101091.63
2022-12-29T21:01:56.361Z,101095.88
2022-12-29T21:05:13.431Z,101094.22
2022-12-29T21:07:44.753Z,101097.53
2022-12-29T21:10:28.651Z,101085.38
2022-12-29T21:13:12.457Z,101087.72
2022-12-29T21:15:59.756Z,101084.22
2022-12-29T21:18:43.702Z,101060.91
2022-12-29T21:21:28.266Z,101085.31
2022-12-29T21:24:12.155Z,101079.97
2022-12-29T21:26:55.916Z,101048.84
2022-12-29T21:29:39.651Z,101079.72
2022-12-29T21:32:24.801Z,101076.47
2022-12-29T21:35:10.271Z,101086.19
2022-12-29T21:37:54.816Z,101038.63
2022-12-29T21:40:40.070Z,101042.16
2022-12-29T21:43:23.916Z,101081.78
2022-12-29T21:46:06.822Z,101080.69
2022-12-29T21:48:51.979Z,101076.16
2022-12-29T21:51:51.293Z,101069.09
2022-12-29T21:54:52.818Z,101031.25
2022-12-29T21:57:55.469Z,101058.69
2022-12-29T22:00:56.654Z,101053.53
2022-12-29T22:03:58.270Z,101066.53
2022-12-29T22:07:00.769Z,101062.19
2022-12-29T22:10:02.178Z,101055.28
2022-12-29T22:13:03.181Z,101046.69
2022-12-29T22:15:47.162Z,101046.22
2022-12-29T22:18:31.153Z,101039.44
2022-12-29T22:21:14.949Z,101039.38
2022-12-29T22:24:00.748Z,101047.28
2022-12-29T22:26:44.643Z,101047.22
2022-12-29T22:29:28.575Z,101043.03
2022-12-29T22:32:12.457Z,101042.75
2022-12-29T22:34:56.804Z,101029.09
2022-12-29T22:37:43.474Z,100995.09
2022-12-29T22:40:28.714Z,101025.69
2022-12-29T22:43:13.446Z,101045.00
2022-12-29T22:46:02.480Z,101034.69
2022-12-29T22:48:46.408Z,101021.00
2022-12-29T22:51:30.261Z,101041.38
2022-12-29T22:54:14.727Z,101028.66
2022-12-29T22:57:00.002Z,101034.91
2022-12-29T22:59:43.740Z,101034.84
2022-12-29T23:02:28.368Z,100993.13
2022-12-29T23:05:12.435Z,101042.13
2022-12-29T23:07:56.323Z,101009.34
2022-12-29T23:10:40.152Z,101036.41
2022-12-29T23:13:25.372Z,100997.16
2022-12-29T23:16:09.574Z,101017.31
2022-12-29T23:18:54.128Z,101032.84
2022-12-29T23:21:38.044Z,101039.69
2022-12-29T23:24:21.924Z,101024.09
2022-12-29T23:27:06.023Z,100994.53
2022-12-29T23:29:51.447Z,101034.47
2022-12-29T23:32:35.284Z,101020.28
2022-12-29T23:35:19.100Z,101014.03
2022-12-29T23:38:02.880Z,100991.28
2022-12-29T23:40:46.766Z,101025.03
2022-12-29T23:43:30.496Z,101009.88
2022-12-29T23:46:17.641Z,100985.66
2022-12-29T23:49:01.574Z,101004.56
2022-12-29T23:51:45.471Z,101016.56
2022-12-29T23:54:29.180Z,101016.50
2022-12-29T23:57:12.905Z,101018.94
2022-12-29T23:59:56.736Z,101012.19
